createdAt,value
2018-06-11T00:04:16.162Z,21.40
2018-06-11T00:06:44.640Z,21.30
2018-06-11T00:09:13.264Z,21.40
2018-06-11T00:11:41.845Z,21.40
2018-06-11T00:14:10.497Z,21.40
2018-06-11T00:16:39.093Z,21.40
2018-06-11T00:19:07.616Z,21.50
2018-06-11T00:21:36.200Z,21.50
2018-06-11T00:24:04.679Z,21.50
2018-06-11T00:26:33.275Z,21.50
2018-06-11T00:29:01.792Z,21.70
2018-06-11T00:31:30.379Z,21.80
2018-06-11T00:33:58.915Z,21.80
2018-06-11T00:36:27.491Z,21.80
2018-06-11T00:38:56.023Z,21.70
2018-06-11T00:41:24.596Z,21.70
2018-06-11T00:43:53.136Z,21.70
2018-06-11T00:46:21.663Z,21.60
2018-06-11T00:48:50.208Z,21.60
2018-06-11T00:51:18.728Z,21.60
2018-06-11T00:53:47.327Z,21.50
2018-06-11T00:56:15.793Z,21.50
2018-06-11T01:01:12.580Z,21.50
2018-06-11T01:03:41.099Z,21.50
2018-06-11T01:06:09.630Z,21.50
2018-06-11T01:08:38.267Z,21.40
2018-06-11T01:11:06.754Z,21.40
2018-06-11T01:13:35.243Z,21.30
2018-06-11T01:16:03.776Z,21.30
2018-06-11T01:18:32.353Z,21.20
2018-06-11T01:21:00.978Z,21.20
2018-06-11T01:23:29.531Z,21.20
2018-06-11T01:25:57.996Z,21.20
2018-06-11T01:28:26.539Z,21.20
2018-06-11T01:30:55.065Z,21.20
2018-06-11T01:33:23.612Z,21.20
2018-06-11T01:35:52.119Z,21.10
2018-06-11T01:38:20.652Z,21.00
2018-06-11T01:40:49.213Z,21.00
2018-06-11T01:43:17.779Z,20.90
2018-06-11T01:45:46.566Z,20.90
2018-06-11T01:48:15.151Z,20.90
2018-06-11T01:50:43.743Z,21.00
2018-06-11T01:53:12.256Z,21.00
2018-06-11T01:55:51.384Z,21.00
2018-06-11T01:58:19.953Z,21.10
2018-06-11T02:00:48.467Z,21.00
2018-06-11T02:03:17.007Z,21.00
2018-06-11T02:05:45.601Z,20.90
2018-06-11T02:08:14.171Z,20.90
2018-06-11T02:10:42.705Z,20.90
2018-06-11T02:13:11.458Z,20.90
2018-06-11T02:15:39.980Z,20.90
2018-06-11T02:18:08.559Z,20.90
2018-06-11T02:20:37.352Z,20.90
2018-06-11T02:23:06.159Z,21.00
2018-06-11T02:25:34.705Z,21.00
2018-06-11T02:28:03.683Z,20.90
2018-06-11T02:30:32.180Z,20.90
2018-06-11T02:33:01.051Z,20.90
2018-06-11T02:35:29.637Z,20.80
2018-06-11T02:37:58.168Z,20.90
2018-06-11T02:40:27.007Z,21.00
2018-06-11T02:42:55.576Z,20.90
2018-06-11T02:45:24.080Z,20.90
2018-06-11T02:47:52.680Z,20.90
2018-06-11T02:50:21.480Z,20.90
2018-06-11T02:52:50.372Z,21.00
2018-06-11T02:55:19.230Z,21.00
2018-06-11T02:57:47.755Z,21.00
2018-06-11T03:00:16.263Z,21.00
2018-06-11T03:05:13.460Z,21.00
2018-06-11T03:07:42.076Z,21.00
2018-06-11T03:10:10.599Z,20.90
2018-06-11T03:12:39.183Z,20.90
2018-06-11T03:15:07.671Z,20.90
2018-06-11T03:17:36.151Z,20.90
2018-06-11T03:20:04.810Z,20.80
2018-06-11T03:22:33.331Z,20.80
2018-06-11T03:25:01.926Z,20.80
2018-06-11T03:27:30.551Z,20.80
2018-06-11T03:29:59.122Z,20.80
2018-06-11T03:32:27.655Z,20.80
2018-06-11T03:34:56.163Z,20.80
2018-06-11T03:37:24.668Z,20.80
2018-06-11T03:39:53.219Z,20.80
2018-06-11T03:42:21.824Z,20.90
2018-06-11T03:44:50.396Z,20.90
2018-06-11T03:47:18.923Z,20.90
2018-06-11T03:49:47.707Z,20.80
2018-06-11T03:52:16.225Z,20.80
2018-06-11T03:54:44.876Z,20.80
2018-06-11T03:57:13.467Z,20.80
2018-06-11T03:59:42.084Z,20.70
2018-06-11T04:02:10.695Z,20.70
2018-06-11T04:04:39.216Z,20.70
2018-06-11T04:07:07.873Z,20.70
2018-06-11T04:09:36.484Z,20.70
2018-06-11T04:12:05.035Z,20.70
2018-06-11T04:14:33.596Z,20.70
2018-06-11T04:17:02.205Z,20.70
2018-06-11T04:19:30.722Z,20.70
2018-06-11T04:21:59.276Z,20.70
2018-06-11T04:24:27.854Z,20.70
2018-06-11T04:26:56.602Z,20.70
2018-06-11T04:29:25.206Z,20.70
2018-06-11T04:31:53.704Z,20.70
2018-06-11T04:34:22.225Z,20.60
2018-06-11T04:36:50.807Z,20.60
2018-06-11T04:39:19.563Z,20.60
2018-06-11T04:41:48.080Z,20.70
2018-06-11T04:46:44.927Z,20.70
2018-06-11T04:49:13.389Z,20.70
2018-06-11T04:51:42.063Z,20.80
2018-06-11T04:56:53.503Z,20.90
2018-06-11T04:59:22.036Z,20.90
2018-06-11T05:01:50.615Z,20.90
2018-06-11T05:04:19.263Z,20.90
2018-06-11T05:06:47.937Z,20.90
2018-06-11T05:09:16.499Z,20.90
2018-06-11T05:11:45.060Z,21.00
2018-06-11T05:14:13.664Z,21.10
2018-06-11T05:16:42.209Z,21.20
2018-06-11T05:19:10.872Z,21.30
2018-06-11T05:21:39.658Z,21.30
2018-06-11T05:26:36.474Z,21.30
2018-06-11T05:29:05.240Z,21.40
2018-06-11T05:31:33.831Z,21.50
2018-06-11T05:34:02.697Z,21.60
2018-06-11T05:36:31.306Z,21.60
2018-06-11T05:38:59.880Z,21.70
2018-06-11T05:41:29.161Z,21.70
2018-06-11T05:43:57.831Z,21.70
2018-06-11T05:46:26.411Z,21.80
2018-06-11T05:48:55.327Z,21.80
2018-06-11T05:51:23.903Z,21.90
2018-06-11T05:53:52.603Z,21.90
2018-06-11T05:56:21.158Z,21.90
2018-06-11T05:58:50.095Z,22.00
2018-06-11T06:01:18.795Z,22.10
2018-06-11T06:03:47.519Z,22.20
2018-06-11T06:06:16.130Z,22.30
2018-06-11T06:08:44.908Z,22.30
2018-06-11T06:11:14.020Z,22.40
2018-06-11T06:13:42.539Z,22.50
2018-06-11T06:16:11.231Z,22.60
2018-06-11T06:18:39.850Z,22.70
2018-06-11T06:21:08.521Z,22.80
2018-06-11T06:23:37.321Z,22.90
2018-06-11T06:26:06.036Z,23.00
2018-06-11T06:28:34.898Z,23.00
2018-06-11T06:31:03.609Z,23.10
2018-06-11T06:33:32.201Z,23.20
2018-06-11T06:36:00.873Z,23.30
2018-06-11T06:38:29.648Z,23.30
2018-06-11T06:40:58.421Z,23.40
2018-06-11T06:43:27.126Z,23.60
2018-06-11T06:45:55.711Z,23.80
2018-06-11T06:48:24.563Z,23.90
2018-06-11T06:50:53.106Z,24.00
2018-06-11T06:53:21.699Z,24.10
2018-06-11T06:55:50.495Z,24.20
2018-06-11T06:58:19.288Z,24.20
2018-06-11T07:00:47.845Z,24.30
2018-06-11T07:03:16.533Z,24.30
2018-06-11T07:05:45.145Z,24.30
2018-06-11T07:08:13.918Z,24.30
2018-06-11T07:10:42.636Z,24.40
2018-06-11T07:13:11.423Z,24.30
2018-06-11T07:18:08.329Z,24.40
2018-06-11T07:20:37.053Z,24.40
2018-06-11T07:23:05.779Z,24.40
2018-06-11T07:25:34.347Z,24.40
2018-06-11T07:28:03.361Z,24.50
2018-06-11T07:30:32.006Z,24.50
2018-06-11T07:33:00.707Z,24.50
2018-06-11T07:35:29.291Z,24.60
2018-06-11T07:37:58.290Z,24.70
2018-06-11T07:40:26.867Z,24.80
2018-06-11T07:42:55.787Z,24.70
2018-06-11T07:45:24.404Z,24.80
2018-06-11T07:47:53.081Z,24.80
2018-06-11T07:50:21.615Z,24.80
2018-06-11T07:52:50.328Z,24.80
2018-06-11T07:55:18.950Z,24.90
2018-06-11T07:57:47.617Z,24.90
2018-06-11T08:00:16.414Z,24.90
2018-06-11T08:02:45.082Z,24.90
2018-06-11T08:05:14.057Z,24.90
2018-06-11T08:07:42.623Z,24.90
2018-06-11T08:10:12.156Z,24.90
2018-06-11T08:12:41.553Z,24.90
2018-06-11T08:15:11.513Z,24.90
2018-06-11T08:17:49.140Z,24.90
2018-06-11T08:20:19.381Z,24.90
2018-06-11T08:22:51.237Z,24.90
2018-06-11T08:25:20.345Z,25.00
2018-06-11T08:27:48.966Z,25.00
2018-06-11T08:30:18.681Z,25.00
2018-06-11T08:32:48.334Z,25.00
2018-06-11T08:35:17.431Z,25.10
2018-06-11T08:37:46.827Z,25.20
2018-06-11T08:40:15.412Z,25.30
2018-06-11T08:42:44.462Z,25.30
2018-06-11T08:45:13.788Z,25.40
2018-06-11T08:47:42.471Z,25.50
2018-06-11T08:50:11.948Z,25.50
2018-06-11T08:52:41.340Z,25.50
2018-06-11T08:55:10.726Z,25.60
2018-06-11T08:57:39.665Z,25.60
2018-06-11T09:00:08.787Z,25.60
2018-06-11T09:02:37.396Z,25.70
2018-06-11T09:05:06.671Z,25.70
2018-06-11T09:07:35.746Z,25.70
2018-06-11T09:10:04.896Z,25.70
2018-06-11T09:12:41.065Z,25.70
2018-06-11T09:15:19.635Z,25.70
2018-06-11T09:17:49.703Z,25.70
2018-06-11T09:20:18.973Z,25.70
2018-06-11T09:22:48.898Z,25.70
2018-06-11T09:25:18.533Z,25.70
2018-06-11T09:27:48.660Z,25.70
2018-06-11T09:30:18.292Z,25.70
2018-06-11T09:32:47.421Z,25.80
2018-06-11T09:35:16.634Z,25.70
2018-06-11T09:37:45.416Z,25.70
2018-06-11T09:40:14.824Z,25.70
2018-06-11T09:42:44.348Z,25.70
2018-06-11T09:45:13.653Z,25.70
2018-06-11T09:47:42.524Z,25.80
2018-06-11T09:50:12.351Z,25.80
2018-06-11T09:52:40.996Z,25.80
2018-06-11T09:55:09.720Z,25.90
2018-06-11T09:57:38.386Z,25.90
2018-06-11T10:00:07.417Z,25.90
2018-06-11T10:02:36.457Z,26.00
2018-06-11T10:05:05.706Z,26.00
2018-06-11T10:07:34.366Z,26.00
2018-06-11T10:10:03.019Z,26.10
2018-06-11T10:12:32.326Z,26.10
2018-06-11T10:15:00.975Z,26.10
2018-06-11T10:17:29.585Z,26.00
2018-06-11T10:19:58.931Z,26.10
2018-06-11T10:22:27.571Z,26.10
2018-06-11T10:24:56.317Z,26.10
2018-06-11T10:27:24.889Z,26.10
2018-06-11T10:29:53.446Z,26.10
2018-06-11T10:32:22.111Z,26.20
2018-06-11T10:34:50.648Z,26.20
2018-06-11T10:37:19.353Z,26.20
2018-06-11T10:39:47.980Z,26.20
2018-06-11T10:42:17.060Z,26.20
2018-06-11T10:44:45.696Z,26.30
2018-06-11T10:47:14.281Z,26.30
2018-06-11T10:49:43.081Z,26.40
2018-06-11T10:54:40.496Z,26.40
2018-06-11T10:57:09.091Z,26.30
2018-06-11T10:59:37.716Z,26.30
2018-06-11T11:02:06.653Z,26.30
2018-06-11T11:04:35.626Z,26.30
2018-06-11T11:07:04.297Z,26.30
2018-06-11T11:09:32.882Z,26.30
2018-06-11T11:14:29.784Z,26.40
2018-06-11T11:16:58.424Z,26.40
2018-06-11T11:19:27.223Z,26.40
2018-06-11T11:21:55.897Z,26.40
2018-06-11T11:24:24.399Z,26.40
2018-06-11T11:26:52.924Z,26.40
2018-06-11T11:29:21.595Z,26.50
2018-06-11T11:31:50.323Z,26.60
2018-06-11T11:34:19.043Z,26.60
2018-06-11T11:36:47.845Z,26.60
2018-06-11T11:39:16.424Z,26.60
2018-06-11T11:41:45.044Z,26.70
2018-06-11T11:44:13.941Z,26.70
2018-06-11T11:46:42.575Z,26.70
2018-06-11T11:49:11.553Z,26.70
2018-06-11T11:51:40.124Z,26.70
2018-06-11T11:54:08.672Z,26.60
2018-06-11T11:56:37.336Z,26.60
2018-06-11T11:59:05.971Z,26.60
2018-06-11T12:01:34.850Z,26.60
2018-06-11T12:04:03.419Z,26.60
2018-06-11T12:06:31.976Z,26.60
2018-06-11T12:09:00.644Z,26.60
2018-06-11T12:11:29.402Z,26.60
2018-06-11T12:13:58.115Z,26.60
2018-06-11T12:16:26.677Z,26.70
2018-06-11T12:18:55.372Z,26.80
2018-06-11T12:21:24.166Z,26.70
2018-06-11T12:23:53.079Z,26.70
2018-06-11T12:26:21.603Z,26.70
2018-06-11T12:28:50.274Z,26.70
2018-06-11T12:31:19.039Z,26.70
2018-06-11T12:33:47.629Z,26.70
2018-06-11T12:36:16.411Z,26.70
2018-06-11T12:38:46.879Z,26.80
2018-06-11T12:41:16.115Z,26.80
2018-06-11T12:43:44.903Z,26.80
2018-06-11T12:46:13.535Z,26.80
2018-06-11T12:48:42.576Z,26.80
2018-06-11T12:51:11.455Z,26.90
2018-06-11T12:56:08.427Z,26.90
2018-06-11T12:58:37.384Z,26.90
2018-06-11T13:01:06.251Z,27.00
2018-06-11T13:03:35.427Z,26.90
2018-06-11T13:06:04.014Z,26.90
2018-06-11T13:08:32.677Z,26.90
2018-06-11T13:11:01.328Z,27.00
2018-06-11T13:13:30.301Z,27.20
2018-06-11T13:15:59.048Z,27.30
2018-06-11T13:18:27.595Z,27.40
2018-06-11T13:20:56.136Z,27.50
2018-06-11T13:23:24.919Z,27.50
2018-06-11T13:25:53.484Z,27.40
2018-06-11T13:28:22.128Z,27.30
2018-06-11T13:33:20.019Z,27.20
2018-06-11T13:35:48.699Z,27.20
2018-06-11T13:38:17.275Z,27.20
2018-06-11T13:40:45.958Z,27.20
2018-06-11T13:43:14.879Z,27.10
2018-06-11T13:45:43.969Z,27.00
2018-06-11T13:48:12.675Z,27.00
2018-06-11T13:50:41.332Z,27.00
2018-06-11T13:53:10.330Z,27.00
2018-06-11T13:55:38.966Z,27.10
2018-06-11T13:58:08.212Z,27.00
2018-06-11T14:00:36.853Z,27.10
2018-06-11T14:03:05.938Z,27.10
2018-06-11T14:05:35.189Z,27.10
2018-06-11T14:08:03.779Z,27.20
2018-06-11T14:10:32.353Z,27.20
2018-06-11T14:13:01.048Z,27.20
2018-06-11T14:15:29.705Z,27.20
2018-06-11T14:17:58.349Z,27.30
2018-06-11T14:20:26.935Z,27.30
2018-06-11T14:22:55.723Z,27.30
2018-06-11T14:25:24.294Z,27.30
2018-06-11T14:27:52.949Z,27.30
2018-06-11T14:30:21.695Z,27.50
2018-06-11T14:32:50.424Z,27.50
2018-06-11T14:35:19.094Z,27.50
2018-06-11T14:37:47.883Z,27.40
2018-06-11T14:40:16.440Z,27.30
2018-06-11T14:42:45.106Z,27.20
2018-06-11T14:45:13.636Z,27.10
2018-06-11T14:47:42.358Z,27.10
2018-06-11T14:50:11.044Z,27.10
2018-06-11T14:52:39.715Z,27.10
2018-06-11T14:55:08.419Z,27.10
2018-06-11T14:57:36.967Z,27.10
2018-06-11T15:00:05.551Z,27.10
2018-06-11T15:02:35.089Z,27.00
2018-06-11T15:05:03.862Z,27.00
2018-06-11T15:07:32.777Z,27.10
2018-06-11T15:10:01.443Z,27.10
2018-06-11T15:12:30.048Z,27.10
2018-06-11T15:14:58.699Z,27.10
2018-06-11T15:17:27.263Z,27.00
2018-06-11T15:19:55.911Z,26.90
2018-06-11T15:22:24.982Z,27.00
2018-06-11T15:24:53.596Z,27.00
2018-06-11T15:27:22.224Z,27.00
2018-06-11T15:29:50.847Z,26.90
2018-06-11T15:32:20.100Z,26.80
2018-06-11T15:34:48.639Z,26.70
2018-06-11T15:37:17.336Z,26.70
2018-06-11T15:39:45.936Z,26.70
2018-06-11T15:42:14.706Z,26.70
2018-06-11T15:44:43.380Z,26.50
2018-06-11T15:47:12.546Z,26.30
2018-06-11T15:49:41.278Z,26.00
2018-06-11T15:52:10.212Z,25.80
2018-06-11T15:54:38.839Z,25.50
2018-06-11T15:57:07.496Z,25.30
2018-06-11T15:59:36.261Z,25.00
2018-06-11T16:02:04.907Z,24.70
2018-06-11T16:07:01.809Z,24.10
2018-06-11T16:09:30.530Z,23.90
2018-06-11T16:11:59.146Z,23.60
2018-06-11T16:14:27.724Z,23.40
2018-06-11T16:16:56.480Z,23.30
2018-06-11T16:19:25.364Z,23.30
2018-06-11T16:21:54.014Z,23.10
2018-06-11T16:24:22.641Z,23.10
2018-06-11T16:26:51.220Z,23.10
2018-06-11T16:29:20.115Z,23.10
2018-06-11T16:31:48.691Z,23.20
2018-06-11T16:34:17.338Z,23.30
2018-06-11T16:36:45.955Z,23.30
2018-06-11T16:39:14.594Z,23.40
2018-06-11T16:41:43.232Z,23.50
2018-06-11T16:44:11.787Z,23.50
2018-06-11T16:46:40.445Z,23.50
2018-06-11T16:49:09.017Z,23.40
2018-06-11T16:51:37.612Z,23.30
2018-06-11T16:54:06.164Z,23.10
2018-06-11T16:56:34.916Z,22.80
2018-06-11T16:59:03.598Z,22.70
2018-06-11T17:01:32.135Z,22.50
2018-06-11T17:04:00.770Z,22.40
2018-06-11T17:06:29.444Z,22.20
2018-06-11T17:08:58.028Z,22.20
2018-06-11T17:11:26.619Z,22.20
2018-06-11T17:13:55.101Z,22.20
2018-06-11T17:16:24.101Z,22.20
2018-06-11T17:18:52.707Z,22.10
2018-06-11T17:21:21.405Z,22.00
2018-06-11T17:23:49.952Z,21.90
2018-06-11T17:26:18.537Z,21.90
2018-06-11T17:28:47.333Z,21.90
2018-06-11T17:31:16.094Z,21.90
2018-06-11T17:33:44.801Z,21.90
2018-06-11T17:36:13.462Z,21.90
2018-06-11T17:38:42.044Z,21.90
2018-06-11T17:41:10.581Z,21.90
2018-06-11T17:43:39.111Z,21.80
2018-06-11T17:46:07.719Z,21.80
2018-06-11T17:48:36.405Z,21.80
2018-06-11T17:51:05.036Z,21.80
2018-06-11T17:53:33.782Z,21.80
2018-06-11T17:56:02.492Z,21.70
2018-06-11T17:58:31.049Z,21.70
2018-06-11T18:00:59.683Z,21.70
2018-06-11T18:05:56.535Z,21.70
2018-06-11T18:08:25.136Z,21.70
2018-06-11T18:13:22.196Z,21.70
2018-06-11T18:15:50.872Z,21.80
2018-06-11T18:18:20.286Z,21.70
2018-06-11T18:20:48.994Z,21.70
2018-06-11T18:23:17.606Z,21.70
2018-06-11T18:25:46.290Z,21.60
2018-06-11T18:30:47.636Z,21.50
2018-06-11T18:33:16.305Z,21.50
2018-06-11T18:35:45.440Z,21.50
2018-06-11T18:38:13.998Z,21.50
2018-06-11T18:40:42.553Z,21.50
2018-06-11T18:43:11.452Z,21.40
2018-06-11T18:45:40.182Z,21.30
2018-06-11T18:48:08.887Z,21.40
2018-06-11T18:50:37.778Z,21.40
2018-06-11T18:53:06.555Z,21.40
2018-06-11T18:55:35.289Z,21.40
2018-06-11T18:58:04.013Z,21.40
2018-06-11T19:00:32.711Z,21.40
2018-06-11T19:03:01.363Z,21.40
2018-06-11T19:05:30.364Z,21.40
2018-06-11T19:07:59.985Z,21.40
2018-06-11T19:10:28.656Z,21.40
2018-06-11T19:12:57.149Z,21.40
2018-06-11T19:15:25.987Z,21.40
2018-06-11T19:17:54.712Z,21.40
2018-06-11T19:20:23.404Z,21.50
2018-06-11T19:22:52.305Z,21.50
2018-06-11T19:25:20.962Z,21.50
2018-06-11T19:27:49.551Z,21.50
2018-06-11T19:30:18.363Z,21.40
2018-06-11T19:32:47.175Z,21.40
2018-06-11T19:35:15.886Z,21.40
2018-06-11T19:37:44.775Z,21.40
2018-06-11T19:40:13.339Z,21.40
2018-06-11T19:42:42.617Z,21.40
2018-06-11T19:45:11.596Z,21.40
2018-06-11T19:47:40.258Z,21.40
2018-06-11T19:50:09.089Z,21.40
2018-06-11T19:52:38.203Z,21.50
2018-06-11T19:55:06.959Z,21.50
2018-06-11T20:00:04.452Z,21.60
2018-06-11T20:02:33.251Z,21.70
2018-06-11T20:05:01.846Z,21.60
2018-06-11T20:07:30.431Z,21.70
2018-06-11T20:09:59.425Z,21.70
2018-06-11T20:12:28.155Z,21.70
2018-06-11T20:14:57.173Z,21.80
2018-06-11T20:17:25.860Z,21.80
2018-06-11T20:19:54.464Z,21.80
2018-06-11T20:22:23.158Z,21.80
2018-06-11T20:24:51.999Z,21.80
2018-06-11T20:27:20.544Z,21.80
2018-06-11T20:29:49.536Z,21.80
2018-06-11T20:32:18.107Z,21.80
2018-06-11T20:34:46.783Z,21.80
2018-06-11T20:37:15.317Z,21.80
2018-06-11T20:39:43.917Z,21.80
2018-06-11T20:44:40.782Z,21.80
2018-06-11T20:47:09.308Z,21.80
2018-06-11T20:49:37.979Z,21.80
2018-06-11T20:52:06.891Z,21.90
2018-06-11T20:54:35.807Z,21.90
2018-06-11T20:57:04.650Z,21.90
2018-06-11T20:59:33.241Z,21.90
2018-06-11T21:02:01.834Z,21.90
2018-06-11T21:04:30.557Z,21.90
2018-06-11T21:07:01.945Z,21.90
2018-06-11T21:09:30.523Z,21.90
2018-06-11T21:11:59.231Z,21.90
2018-06-11T21:14:27.797Z,22.00
2018-06-11T21:16:56.506Z,22.00
2018-06-11T21:19:25.396Z,21.90
2018-06-11T21:21:54.342Z,21.90
2018-06-11T21:24:22.959Z,21.90
2018-06-11T21:26:51.590Z,22.00
2018-06-11T21:29:20.331Z,21.90
2018-06-11T21:31:48.859Z,21.90
2018-06-11T21:34:17.427Z,21.90
2018-06-11T21:36:45.981Z,21.90
2018-06-11T21:39:14.558Z,21.90
2018-06-11T21:41:43.063Z,21.90
2018-06-11T21:44:11.632Z,22.00
2018-06-11T21:46:40.542Z,22.00
2018-06-11T21:49:09.136Z,22.10
2018-06-11T21:51:37.736Z,22.00
2018-06-11T21:54:06.415Z,22.00
2018-06-11T21:56:34.979Z,22.10
2018-06-11T21:59:03.472Z,22.00
2018-06-11T22:01:32.059Z,22.00
2018-06-11T22:04:00.775Z,22.10
2018-06-11T22:06:29.242Z,22.10
2018-06-11T22:08:57.752Z,22.00
2018-06-11T22:11:29.473Z,22.10
2018-06-11T22:13:58.551Z,22.00
2018-06-11T22:16:27.273Z,22.00
2018-06-11T22:21:24.355Z,22.00
2018-06-11T22:23:53.397Z,22.10
2018-06-11T22:26:22.119Z,22.20
2018-06-11T22:28:50.692Z,22.20
2018-06-11T22:31:19.253Z,22.20
2018-06-11T22:33:47.802Z,22.20
2018-06-11T22:36:16.372Z,22.10
2018-06-11T22:38:44.926Z,22.20
2018-06-11T22:41:13.482Z,22.10
2018-06-11T22:43:42.091Z,22.10
2018-06-11T22:46:10.680Z,22.10
2018-06-11T22:48:39.154Z,22.10
2018-06-11T22:51:07.747Z,22.00
2018-06-11T22:53:36.477Z,22.00
2018-06-11T22:56:05.373Z,22.10
2018-06-11T22:58:33.909Z,22.10
2018-06-11T23:01:02.577Z,22.10
2018-06-11T23:03:31.172Z,22.10
2018-06-11T23:05:59.756Z,22.20
2018-06-11T23:08:28.379Z,22.10
2018-06-11T23:10:56.977Z,22.10
2018-06-11T23:13:25.561Z,22.20
2018-06-11T23:15:54.213Z,22.10
2018-06-11T23:18:23.241Z,22.10
2018-06-11T23:20:51.798Z,22.10
2018-06-11T23:23:20.439Z,22.20
2018-06-11T23:25:48.991Z,22.20
2018-06-11T23:28:17.629Z,22.20
2018-06-11T23:30:46.311Z,22.20
2018-06-11T23:33:14.879Z,22.30
2018-06-11T23:35:43.476Z,22.30
2018-06-11T23:38:12.067Z,22.30
2018-06-11T23:40:40.661Z,22.30
2018-06-11T23:43:09.733Z,22.30
2018-06-11T23:45:39.084Z,22.30
2018-06-11T23:48:07.698Z,22.30
2018-06-11T23:50:36.346Z,22.30
2018-06-11T23:53:04.953Z,22.30
2018-06-11T23:55:34.149Z,22.20
2018-06-11T23:58:02.672Z,22.20
